sensor_id;sensor_type;location;lat;lon;timestamp;P1;durP1;ratioP1;P2;durP2;ratioP2
72437;SDS011;60444;43.534;-5.674;2023-02-28T00:00:12;8.95;;;3.17;;
72437;SDS011;60444;43.534;-5.674;2023-02-28T00:02:39;8.63;;;3.33;;
72437;SDS011;60444;43.534;-5.674;2023-02-28T00:05:06;12.20;;;3.80;;
72437;SDS011;60444;43.534;-5.674;2023-02-28T00:07:34;10.00;;;3.30;;
72437;SDS011;60444;43.534;-5.674;2023-02-28T00:10:00;7.22;;;2.33;;
72437;SDS011;60444;43.534;-5.674;2023-02-28T00:12:26;7.28;;;2.42;;
72437;SDS011;60444;43.534;-5.674;2023-02-28T00:14:52;6.97;;;2.00;;
72437;SDS011;60444;43.534;-5.674;2023-02-28T00:17:17;8.67;;;2.80;;
72437;SDS011;60444;43.534;-5.674;2023-02-28T00:19:48;9.00;;;2.92;;
72437;SDS011;60444;43.534;-5.674;2023-02-28T00:22:18;12.15;;;3.58;;
72437;SDS011;60444;43.534;-5.674;2023-02-28T00:24:45;11.60;;;3.13;;
72437;SDS011;60444;43.534;-5.674;2023-02-28T00:27:12;7.63;;;2.93;;
72437;SDS011;60444;43.534;-5.674;2023-02-28T00:29:37;12.65;;;3.30;;
72437;SDS011;60444;43.534;-5.674;2023-02-28T00:32:03;10.47;;;3.67;;
72437;SDS011;60444;43.534;-5.674;2023-02-28T00:34:29;11.73;;;3.08;;
72437;SDS011;60444;43.534;-5.674;2023-02-28T00:36:55;10.27;;;3.07;;
72437;SDS011;60444;43.534;-5.674;2023-02-28T00:39:21;9.43;;;3.15;;
72437;SDS011;60444;43.534;-5.674;2023-02-28T00:41:46;10.30;;;3.40;;
72437;SDS011;60444;43.534;-5.674;2023-02-28T00:44:12;7.80;;;2.73;;
72437;SDS011;60444;43.534;-5.674;2023-02-28T00:46:37;7.30;;;2.07;;
72437;SDS011;60444;43.534;-5.674;2023-02-28T00:49:03;10.07;;;3.40;;
72437;SDS011;60444;43.534;-5.674;2023-02-28T00:51:28;12.00;;;3.17;;
72437;SDS011;60444;43.534;-5.674;2023-02-28T00:53:54;11.35;;;2.67;;
72437;SDS011;60444;43.534;-5.674;2023-02-28T00:56:19;8.43;;;2.67;;
72437;SDS011;60444;43.534;-5.674;2023-02-28T00:58:45;10.27;;;2.80;;
72437;SDS011;60444;43.534;-5.674;2023-02-28T01:01:10;9.88;;;2.53;;
72437;SDS011;60444;43.534;-5.674;2023-02-28T01:03:36;14.93;;;2.80;;
72437;SDS011;60444;43.534;-5.674;2023-02-28T01:06:01;8.13;;;2.65;;
72437;SDS011;60444;43.534;-5.674;2023-02-28T01:08:27;11.23;;;3.03;;
72437;SDS011;60444;43.534;-5.674;2023-02-28T01:10:53;7.77;;;2.40;;
72437;SDS011;60444;43.534;-5.674;2023-02-28T01:13:26;8.07;;;2.65;;
72437;SDS011;60444;43.534;-5.674;2023-02-28T01:15:55;11.10;;;2.80;;
72437;SDS011;60444;43.534;-5.674;2023-02-28T01:18:21;8.15;;;3.30;;
72437;SDS011;60444;43.534;-5.674;2023-02-28T01:20:48;6.63;;;2.58;;
72437;SDS011;60444;43.534;-5.674;2023-02-28T01:23:18;8.80;;;3.00;;
72437;SDS011;60444;43.534;-5.674;2023-02-28T01:25:45;9.10;;;3.35;;
72437;SDS011;60444;43.534;-5.674;2023-02-28T01:28:10;8.50;;;2.20;;
72437;SDS011;60444;43.534;-5.674;2023-02-28T01:30:36;9.50;;;2.90;;
72437;SDS011;60444;43.534;-5.674;2023-02-28T01:33:01;9.63;;;2.80;;
72437;SDS011;60444;43.534;-5.674;2023-02-28T01:35:27;8.82;;;2.60;;
72437;SDS011;60444;43.534;-5.674;2023-02-28T01:37:52;9.93;;;2.60;;
72437;SDS011;60444;43.534;-5.674;2023-02-28T01:40:17;10.93;;;3.50;;
72437;SDS011;60444;43.534;-5.674;2023-02-28T01:42:43;9.57;;;2.50;;
72437;SDS011;60444;43.534;-5.674;2023-02-28T01:47:50;9.02;;;3.88;;
72437;SDS011;60444;43.534;-5.674;2023-02-28T01:50:19;10.07;;;3.30;;
72437;SDS011;60444;43.534;-5.674;2023-02-28T01:52:48;8.98;;;3.35;;
72437;SDS011;60444;43.534;-5.674;2023-02-28T01:55:15;9.88;;;2.28;;
72437;SDS011;60444;43.534;-5.674;2023-02-28T01:57:54;8.30;;;2.63;;
72437;SDS011;60444;43.534;-5.674;2023-02-28T02:00:22;9.48;;;2.38;;
72437;SDS011;60444;43.534;-5.674;2023-02-28T02:02:54;8.53;;;2.10;;
72437;SDS011;60444;43.534;-5.674;2023-02-28T02:05:25;6.30;;;1.88;;
72437;SDS011;60444;43.534;-5.674;2023-02-28T02:08:03;10.75;;;2.85;;
72437;SDS011;60444;43.534;-5.674;2023-02-28T02:15:26;11.30;;;3.58;;
72437;SDS011;60444;43.534;-5.674;2023-02-28T02:18:01;9.25;;;3.35;;
72437;SDS011;60444;43.534;-5.674;2023-02-28T02:23:24;8.93;;;2.80;;
72437;SDS011;60444;43.534;-5.674;2023-02-28T02:31:55;9.57;;;3.15;;
72437;SDS011;60444;43.534;-5.674;2023-02-28T02:42:37;13.02;;;3.42;;
72437;SDS011;60444;43.534;-5.674;2023-02-28T02:45:51;11.02;;;3.55;;
72437;SDS011;60444;43.534;-5.674;2023-02-28T02:48:02;10.97;;;2.90;;
72437;SDS011;60444;43.534;-5.674;2023-02-28T02:50:37;10.35;;;3.58;;
72437;SDS011;60444;43.534;-5.674;2023-02-28T02:53:07;7.47;;;2.72;;
72437;SDS011;60444;43.534;-5.674;2023-02-28T02:55:37;11.18;;;3.65;;
72437;SDS011;60444;43.534;-5.674;2023-02-28T02:58:10;8.35;;;2.55;;
72437;SDS011;60444;43.534;-5.674;2023-02-28T03:00:41;9.70;;;3.33;;
72437;SDS011;60444;43.534;-5.674;2023-02-28T03:03:11;15.88;;;4.95;;
72437;SDS011;60444;43.534;-5.674;2023-02-28T03:05:42;15.52;;;4.70;;
72437;SDS011;60444;43.534;-5.674;2023-02-28T03:08:11;11.50;;;4.40;;
72437;SDS011;60444;43.534;-5.674;2023-02-28T03:10:44;14.10;;;5.23;;
72437;SDS011;60444;43.534;-5.674;2023-02-28T03:26:28;20.67;;;7.03;;
72437;SDS011;60444;43.534;-5.674;2023-02-28T03:28:58;15.95;;;6.22;;
72437;SDS011;60444;43.534;-5.674;2023-02-28T03:31:52;15.55;;;4.97;;
72437;SDS011;60444;43.534;-5.674;2023-02-28T03:34:24;14.20;;;4.55;;
72437;SDS011;60444;43.534;-5.674;2023-02-28T03:36:55;16.83;;;5.13;;
72437;SDS011;60444;43.534;-5.674;2023-02-28T03:39:27;15.65;;;5.82;;
72437;SDS011;60444;43.534;-5.674;2023-02-28T03:41:58;12.40;;;3.75;;
72437;SDS011;60444;43.534;-5.674;2023-02-28T03:44:29;12.45;;;4.38;;
72437;SDS011;60444;43.534;-5.674;2023-02-28T03:47:08;12.15;;;3.85;;
72437;SDS011;60444;43.534;-5.674;2023-02-28T03:49:35;17.10;;;5.67;;
72437;SDS011;60444;43.534;-5.674;2023-02-28T03:52:08;15.70;;;5.47;;
72437;SDS011;60444;43.534;-5.674;2023-02-28T03:54:36;15.10;;;5.20;;
72437;SDS011;60444;43.534;-5.674;2023-02-28T03:57:10;17.58;;;4.47;;
72437;SDS011;60444;43.534;-5.674;2023-02-28T03:59:44;16.40;;;3.78;;
72437;SDS011;60444;43.534;-5.674;2023-02-28T04:02:15;15.47;;;5.20;;
72437;SDS011;60444;43.534;-5.674;2023-02-28T04:04:40;13.48;;;4.75;;
72437;SDS011;60444;43.534;-5.674;2023-02-28T04:07:13;12.70;;;3.80;;
72437;SDS011;60444;43.534;-5.674;2023-02-28T04:09:39;15.10;;;4.63;;
72437;SDS011;60444;43.534;-5.674;2023-02-28T04:12:05;10.15;;;3.65;;
72437;SDS011;60444;43.534;-5.674;2023-02-28T04:14:31;14.32;;;3.53;;
72437;SDS011;60444;43.534;-5.674;2023-02-28T04:16:56;15.10;;;4.20;;
72437;SDS011;60444;43.534;-5.674;2023-02-28T04:19:22;14.80;;;4.50;;
72437;SDS011;60444;43.534;-5.674;2023-02-28T04:21:49;11.00;;;3.88;;
72437;SDS011;60444;43.534;-5.674;2023-02-28T04:24:17;10.03;;;3.17;;
72437;SDS011;60444;43.534;-5.674;2023-02-28T04:26:46;10.60;;;2.67;;
72437;SDS011;60444;43.534;-5.674;2023-02-28T04:29:14;13.15;;;4.00;;
72437;SDS011;60444;43.534;-5.674;2023-02-28T04:31:44;10.07;;;2.95;;
72437;SDS011;60444;43.534;-5.674;2023-02-28T04:34:09;10.57;;;3.53;;
72437;SDS011;60444;43.534;-5.674;2023-02-28T04:36:35;13.07;;;5.03;;
72437;SDS011;60444;43.534;-5.674;2023-02-28T04:39:00;11.93;;;3.38;;
72437;SDS011;60444;43.534;-5.674;2023-02-28T04:41:26;10.20;;;3.13;;
72437;SDS011;60444;43.534;-5.674;2023-02-28T04:43:51;10.35;;;2.90;;
72437;SDS011;60444;43.534;-5.674;2023-02-28T04:46:17;12.90;;;3.50;;
72437;SDS011;60444;43.534;-5.674;2023-02-28T04:48:44;10.95;;;3.10;;
72437;SDS011;60444;43.534;-5.674;2023-02-28T04:51:11;11.90;;;3.33;;
72437;SDS011;60444;43.534;-5.674;2023-02-28T04:53:38;11.52;;;4.07;;
72437;SDS011;60444;43.534;-5.674;2023-02-28T04:56:05;10.00;;;3.30;;
72437;SDS011;60444;43.534;-5.674;2023-02-28T04:58:32;12.90;;;3.80;;
72437;SDS011;60444;43.534;-5.674;2023-02-28T05:01:15;12.95;;;4.05;;
72437;SDS011;60444;43.534;-5.674;2023-02-28T05:03:42;12.07;;;3.83;;
72437;SDS011;60444;43.534;-5.674;2023-02-28T05:06:08;10.48;;;3.20;;
72437;SDS011;60444;43.534;-5.674;2023-02-28T05:08:35;9.80;;;3.07;;
72437;SDS011;60444;43.534;-5.674;2023-02-28T05:11:01;9.60;;;3.25;;
72437;SDS011;60444;43.534;-5.674;2023-02-28T05:13:28;12.30;;;4.25;;
72437;SDS011;60444;43.534;-5.674;2023-02-28T05:15:54;11.93;;;3.43;;
72437;SDS011;60444;43.534;-5.674;2023-02-28T05:18:19;7.38;;;2.30;;
72437;SDS011;60444;43.534;-5.674;2023-02-28T05:20:45;9.88;;;2.85;;
72437;SDS011;60444;43.534;-5.674;2023-02-28T05:23:12;7.67;;;2.83;;
72437;SDS011;60444;43.534;-5.674;2023-02-28T05:25:38;10.45;;;3.40;;
72437;SDS011;60444;43.534;-5.674;2023-02-28T05:28:05;10.75;;;2.60;;
72437;SDS011;60444;43.534;-5.674;2023-02-28T05:30:30;10.20;;;3.65;;
72437;SDS011;60444;43.534;-5.674;2023-02-28T05:32:56;10.47;;;2.67;;
72437;SDS011;60444;43.534;-5.674;2023-02-28T05:35:23;11.40;;;3.80;;
72437;SDS011;60444;43.534;-5.674;2023-02-28T05:37:49;10.10;;;2.72;;
72437;SDS011;60444;43.534;-5.674;2023-02-28T05:40:14;12.00;;;3.57;;
72437;SDS011;60444;43.534;-5.674;2023-02-28T05:42:41;10.15;;;3.05;;
72437;SDS011;60444;43.534;-5.674;2023-02-28T05:45:07;9.93;;;3.10;;
72437;SDS011;60444;43.534;-5.674;2023-02-28T05:47:33;11.25;;;2.50;;
72437;SDS011;60444;43.534;-5.674;2023-02-28T05:50:02;8.65;;;2.50;;
72437;SDS011;60444;43.534;-5.674;2023-02-28T05:52:28;12.43;;;2.92;;
72437;SDS011;60444;43.534;-5.674;2023-02-28T05:54:56;8.70;;;2.42;;
72437;SDS011;60444;43.534;-5.674;2023-02-28T05:57:22;8.17;;;2.63;;
72437;SDS011;60444;43.534;-5.674;2023-02-28T05:59:48;10.05;;;3.10;;
72437;SDS011;60444;43.534;-5.674;2023-02-28T06:02:15;8.57;;;2.57;;
72437;SDS011;60444;43.534;-5.674;2023-02-28T06:04:42;8.43;;;2.72;;
72437;SDS011;60444;43.534;-5.674;2023-02-28T06:07:08;13.85;;;2.97;;
72437;SDS011;60444;43.534;-5.674;2023-02-28T06:09:34;15.40;;;3.28;;
72437;SDS011;60444;43.534;-5.674;2023-02-28T06:12:01;10.00;;;2.93;;
72437;SDS011;60444;43.534;-5.674;2023-02-28T06:14:32;9.43;;;3.38;;
72437;SDS011;60444;43.534;-5.674;2023-02-28T06:16:59;9.68;;;2.97;;
72437;SDS011;60444;43.534;-5.674;2023-02-28T06:19:25;12.90;;;3.22;;
72437;SDS011;60444;43.534;-5.674;2023-02-28T06:21:51;9.53;;;3.37;;
72437;SDS011;60444;43.534;-5.674;2023-02-28T06:24:22;10.68;;;2.60;;
72437;SDS011;60444;43.534;-5.674;2023-02-28T06:26:49;10.73;;;2.13;;
72437;SDS011;60444;43.534;-5.674;2023-02-28T06:29:14;9.65;;;3.00;;
72437;SDS011;60444;43.534;-5.674;2023-02-28T06:31:46;10.70;;;3.13;;
72437;SDS011;60444;43.534;-5.674;2023-02-28T06:34:13;9.45;;;2.47;;
72437;SDS011;60444;43.534;-5.674;2023-02-28T06:36:39;10.68;;;2.90;;
72437;SDS011;60444;43.534;-5.674;2023-02-28T06:39:06;8.10;;;2.65;;
72437;SDS011;60444;43.534;-5.674;2023-02-28T06:41:33;8.98;;;3.40;;
72437;SDS011;60444;43.534;-5.674;2023-02-28T06:44:03;9.10;;;2.40;;
72437;SDS011;60444;43.534;-5.674;2023-02-28T06:46:30;9.07;;;2.88;;
72437;SDS011;60444;43.534;-5.674;2023-02-28T06:48:56;15.00;;;3.35;;
72437;SDS011;60444;43.534;-5.674;2023-02-28T06:51:23;7.70;;;2.75;;
72437;SDS011;60444;43.534;-5.674;2023-02-28T06:53:49;8.40;;;2.50;;
72437;SDS011;60444;43.534;-5.674;2023-02-28T06:56:15;8.32;;;2.40;;
72437;SDS011;60444;43.534;-5.674;2023-02-28T06:58:41;8.75;;;2.53;;
72437;SDS011;60444;43.534;-5.674;2023-02-28T07:01:10;9.88;;;2.90;;
72437;SDS011;60444;43.534;-5.674;2023-02-28T07:03:36;9.30;;;2.73;;
72437;SDS011;60444;43.534;-5.674;2023-02-28T07:06:02;8.23;;;2.42;;
72437;SDS011;60444;43.534;-5.674;2023-02-28T07:08:29;6.83;;;2.33;;
72437;SDS011;60444;43.534;-5.674;2023-02-28T07:10:55;9.18;;;2.70;;
72437;SDS011;60444;43.534;-5.674;2023-02-28T07:13:21;8.32;;;2.58;;
72437;SDS011;60444;43.534;-5.674;2023-02-28T07:18:41;9.15;;;2.70;;
72437;SDS011;60444;43.534;-5.674;2023-02-28T07:21:07;9.67;;;2.80;;
72437;SDS011;60444;43.534;-5.674;2023-02-28T07:23:34;11.50;;;2.30;;
72437;SDS011;60444;43.534;-5.674;2023-02-28T07:26:03;7.93;;;3.17;;
72437;SDS011;60444;43.534;-5.674;2023-02-28T07:28:29;10.35;;;2.88;;
72437;SDS011;60444;43.534;-5.674;2023-02-28T07:30:54;8.07;;;3.03;;
72437;SDS011;60444;43.534;-5.674;2023-02-28T07:33:20;7.32;;;2.35;;
72437;SDS011;60444;43.534;-5.674;2023-02-28T07:35:45;6.77;;;2.43;;
72437;SDS011;60444;43.534;-5.674;2023-02-28T07:38:11;8.00;;;3.03;;
72437;SDS011;60444;43.534;-5.674;2023-02-28T07:40:38;10.13;;;3.42;;
72437;SDS011;60444;43.534;-5.674;2023-02-28T07:43:04;8.65;;;3.53;;
72437;SDS011;60444;43.534;-5.674;2023-02-28T07:45:30;9.93;;;3.00;;
72437;SDS011;60444;43.534;-5.674;2023-02-28T07:47:59;10.75;;;3.42;;
72437;SDS011;60444;43.534;-5.674;2023-02-28T07:50:25;10.85;;;3.25;;
72437;SDS011;60444;43.534;-5.674;2023-02-28T07:52:54;8.55;;;2.67;;
72437;SDS011;60444;43.534;-5.674;2023-02-28T07:55:19;8.57;;;3.17;;
72437;SDS011;60444;43.534;-5.674;2023-02-28T07:57:45;11.47;;;3.27;;
72437;SDS011;60444;43.534;-5.674;2023-02-28T08:00:10;7.63;;;2.33;;
72437;SDS011;60444;43.534;-5.674;2023-02-28T08:02:37;11.75;;;2.78;;
72437;SDS011;60444;43.534;-5.674;2023-02-28T08:05:03;12.00;;;3.28;;
72437;SDS011;60444;43.534;-5.674;2023-02-28T08:07:30;15.50;;;3.60;;
72437;SDS011;60444;43.534;-5.674;2023-02-28T08:09:55;7.50;;;2.90;;
72437;SDS011;60444;43.534;-5.674;2023-02-28T08:12:21;12.85;;;3.72;;
72437;SDS011;60444;43.534;-5.674;2023-02-28T08:14:46;9.00;;;3.10;;
72437;SDS011;60444;43.534;-5.674;2023-02-28T08:17:12;13.07;;;3.63;;
72437;SDS011;60444;43.534;-5.674;2023-02-28T08:19:37;8.90;;;2.80;;
72437;SDS011;60444;43.534;-5.674;2023-02-28T08:22:04;9.02;;;2.58;;
72437;SDS011;60444;43.534;-5.674;2023-02-28T08:24:30;13.40;;;3.38;;
72437;SDS011;60444;43.534;-5.674;2023-02-28T08:26:55;9.17;;;3.80;;
72437;SDS011;60444;43.534;-5.674;2023-02-28T08:29:21;10.18;;;3.00;;
72437;SDS011;60444;43.534;-5.674;2023-02-28T08:31:47;13.40;;;3.50;;
72437;SDS011;60444;43.534;-5.674;2023-02-28T08:34:14;12.50;;;3.63;;
72437;SDS011;60444;43.534;-5.674;2023-02-28T08:36:41;18.23;;;3.63;;
72437;SDS011;60444;43.534;-5.674;2023-02-28T08:39:09;10.50;;;3.20;;
72437;SDS011;60444;43.534;-5.674;2023-02-28T08:41:35;14.30;;;3.83;;
72437;SDS011;60444;43.534;-5.674;2023-02-28T08:44:01;10.13;;;3.00;;
72437;SDS011;60444;43.534;-5.674;2023-02-28T08:46:27;10.93;;;3.75;;
72437;SDS011;60444;43.534;-5.674;2023-02-28T08:48:53;12.63;;;4.07;;
72437;SDS011;60444;43.534;-5.674;2023-02-28T08:51:20;7.30;;;2.30;;
72437;SDS011;60444;43.534;-5.674;2023-02-28T08:53:51;10.73;;;4.00;;
72437;SDS011;60444;43.534;-5.674;2023-02-28T08:56:22;11.10;;;3.87;;
72437;SDS011;60444;43.534;-5.674;2023-02-28T08:58:49;9.82;;;3.55;;
72437;SDS011;60444;43.534;-5.674;2023-02-28T09:03:42;8.63;;;3.05;;
72437;SDS011;60444;43.534;-5.674;2023-02-28T09:06:08;7.20;;;2.30;;
72437;SDS011;60444;43.534;-5.674;2023-02-28T09:08:35;7.68;;;2.97;;
72437;SDS011;60444;43.534;-5.674;2023-02-28T09:11:01;9.60;;;2.92;;
72437;SDS011;60444;43.534;-5.674;2023-02-28T09:13:27;7.07;;;2.63;;
72437;SDS011;60444;43.534;-5.674;2023-02-28T09:15:53;9.38;;;2.08;;
72437;SDS011;60444;43.534;-5.674;2023-02-28T09:18:19;6.25;;;2.10;;
72437;SDS011;60444;43.534;-5.674;2023-02-28T09:20:45;9.35;;;2.05;;
72437;SDS011;60444;43.534;-5.674;2023-02-28T09:23:12;7.77;;;2.27;;
72437;SDS011;60444;43.534;-5.674;2023-02-28T09:25:40;6.55;;;1.80;;
72437;SDS011;60444;43.534;-5.674;2023-02-28T09:28:12;7.15;;;1.95;;
72437;SDS011;60444;43.534;-5.674;2023-02-28T09:30:37;7.50;;;1.87;;
72437;SDS011;60444;43.534;-5.674;2023-02-28T09:33:03;7.70;;;1.97;;
72437;SDS011;60444;43.534;-5.674;2023-02-28T09:35:28;9.50;;;2.58;;
72437;SDS011;60444;43.534;-5.674;2023-02-28T09:37:55;6.60;;;2.03;;
72437;SDS011;60444;43.534;-5.674;2023-02-28T09:40:22;6.10;;;1.50;;
72437;SDS011;60444;43.534;-5.674;2023-02-28T09:42:51;6.80;;;2.00;;
72437;SDS011;60444;43.534;-5.674;2023-02-28T09:48:03;7.20;;;1.93;;
72437;SDS011;60444;43.534;-5.674;2023-02-28T09:50:36;10.30;;;2.20;;
72437;SDS011;60444;43.534;-5.674;2023-02-28T09:53:28;7.15;;;2.35;;
72437;SDS011;60444;43.534;-5.674;2023-02-28T09:58:39;6.93;;;2.20;;
72437;SDS011;60444;43.534;-5.674;2023-02-28T10:04:03;6.55;;;1.73;;
72437;SDS011;60444;43.534;-5.674;2023-02-28T10:06:32;7.72;;;2.08;;
72437;SDS011;60444;43.534;-5.674;2023-02-28T10:09:05;7.53;;;2.25;;
72437;SDS011;60444;43.534;-5.674;2023-02-28T10:11:38;7.55;;;1.83;;
72437;SDS011;60444;43.534;-5.674;2023-02-28T10:14:22;6.57;;;1.30;;
72437;SDS011;60444;43.534;-5.674;2023-02-28T10:24:55;7.03;;;1.90;;
72437;SDS011;60444;43.534;-5.674;2023-02-28T10:27:34;5.20;;;1.83;;
72437;SDS011;60444;43.534;-5.674;2023-02-28T10:30:00;7.85;;;2.25;;
72437;SDS011;60444;43.534;-5.674;2023-02-28T10:32:33;7.00;;;1.85;;
72437;SDS011;60444;43.534;-5.674;2023-02-28T10:35:10;5.68;;;1.50;;
72437;SDS011;60444;43.534;-5.674;2023-02-28T10:37:41;7.65;;;1.88;;
72437;SDS011;60444;43.534;-5.674;2023-02-28T10:45:53;5.97;;;1.42;;
72437;SDS011;60444;43.534;-5.674;2023-02-28T10:49:00;10.13;;;1.98;;
72437;SDS011;60444;43.534;-5.674;2023-02-28T10:51:37;6.53;;;1.75;;
72437;SDS011;60444;43.534;-5.674;2023-02-28T10:54:04;5.97;;;1.67;;
72437;SDS011;60444;43.534;-5.674;2023-02-28T10:56:33;4.82;;;1.65;;
72437;SDS011;60444;43.534;-5.674;2023-02-28T10:59:00;7.40;;;1.75;;
72437;SDS011;60444;43.534;-5.674;2023-02-28T11:01:42;5.78;;;1.55;;
72437;SDS011;60444;43.534;-5.674;2023-02-28T11:04:38;8.48;;;1.58;;
72437;SDS011;60444;43.534;-5.674;2023-02-28T11:07:06;8.37;;;1.53;;
72437;SDS011;60444;43.534;-5.674;2023-02-28T11:09:45;6.50;;;1.38;;
72437;SDS011;60444;43.534;-5.674;2023-02-28T11:12:21;7.32;;;1.50;;
72437;SDS011;60444;43.534;-5.674;2023-02-28T11:14:54;4.72;;;1.60;;
72437;SDS011;60444;43.534;-5.674;2023-02-28T11:17:26;6.63;;;2.00;;
72437;SDS011;60444;43.534;-5.674;2023-02-28T11:20:20;6.60;;;1.63;;
72437;SDS011;60444;43.534;-5.674;2023-02-28T11:22:44;7.13;;;1.92;;
72437;SDS011;60444;43.534;-5.674;2023-02-28T11:25:46;8.20;;;2.00;;
72437;SDS011;60444;43.534;-5.674;2023-02-28T11:28:05;6.55;;;1.83;;
72437;SDS011;60444;43.534;-5.674;2023-02-28T11:31:34;7.28;;;2.25;;
72437;SDS011;60444;43.534;-5.674;2023-02-28T11:38:49;8.23;;;2.28;;
72437;SDS011;60444;43.534;-5.674;2023-02-28T11:46:41;6.80;;;2.00;;
72437;SDS011;60444;43.534;-5.674;2023-02-28T11:57:48;7.05;;;2.58;;
72437;SDS011;60444;43.534;-5.674;2023-02-28T12:08:51;10.40;;;2.10;;
72437;SDS011;60444;43.534;-5.674;2023-02-28T12:15:14;7.17;;;2.33;;
72437;SDS011;60444;43.534;-5.674;2023-02-28T12:20:37;6.40;;;2.38;;
72437;SDS011;60444;43.534;-5.674;2023-02-28T12:28:20;5.60;;;1.60;;
72437;SDS011;60444;43.534;-5.674;2023-02-28T12:30:56;7.50;;;1.60;;
72437;SDS011;60444;43.534;-5.674;2023-02-28T12:33:29;7.60;;;1.90;;
72437;SDS011;60444;43.534;-5.674;2023-02-28T12:36:00;5.85;;;1.60;;
72437;SDS011;60444;43.534;-5.674;2023-02-28T12:38:34;8.50;;;2.10;;
72437;SDS011;60444;43.534;-5.674;2023-02-28T12:41:14;7.10;;;1.70;;
72437;SDS011;60444;43.534;-5.674;2023-02-28T12:43:50;11.20;;;2.25;;
72437;SDS011;60444;43.534;-5.674;2023-02-28T12:46:24;8.60;;;2.13;;
72437;SDS011;60444;43.534;-5.674;2023-02-28T12:48:55;8.35;;;2.22;;
72437;SDS011;60444;43.534;-5.674;2023-02-28T12:51:23;7.45;;;2.03;;
72437;SDS011;60444;43.534;-5.674;2023-02-28T12:56:36;6.80;;;1.60;;
72437;SDS011;60444;43.534;-5.674;2023-02-28T12:59:11;6.78;;;2.67;;
72437;SDS011;60444;43.534;-5.674;2023-02-28T13:01:42;5.82;;;1.70;;
72437;SDS011;60444;43.534;-5.674;2023-02-28T13:07:36;5.80;;;1.80;;
72437;SDS011;60444;43.534;-5.674;2023-02-28T13:10:22;6.20;;;2.17;;
72437;SDS011;60444;43.534;-5.674;2023-02-28T13:12:49;5.28;;;2.10;;
72437;SDS011;60444;43.534;-5.674;2023-02-28T13:15:18;6.50;;;2.65;;
72437;SDS011;60444;43.534;-5.674;2023-02-28T13:17:57;6.82;;;2.33;;
72437;SDS011;60444;43.534;-5.674;2023-02-28T13:20:37;8.20;;;1.87;;
72437;SDS011;60444;43.534;-5.674;2023-02-28T13:26:20;9.00;;;1.75;;
72437;SDS011;60444;43.534;-5.674;2023-02-28T13:31:29;7.13;;;2.45;;
72437;SDS011;60444;43.534;-5.674;2023-02-28T13:36:27;11.45;;;2.50;;
72437;SDS011;60444;43.534;-5.674;2023-02-28T13:38:57;10.85;;;2.00;;
72437;SDS011;60444;43.534;-5.674;2023-02-28T13:51:56;8.40;;;2.80;;
72437;SDS011;60444;43.534;-5.674;2023-02-28T14:05:32;9.85;;;2.55;;
72437;SDS011;60444;43.534;-5.674;2023-02-28T14:08:04;6.83;;;1.90;;
72437;SDS011;60444;43.534;-5.674;2023-02-28T14:10:43;8.10;;;2.22;;
72437;SDS011;60444;43.534;-5.674;2023-02-28T14:13:12;7.15;;;2.38;;
72437;SDS011;60444;43.534;-5.674;2023-02-28T14:18:27;7.55;;;2.13;;
72437;SDS011;60444;43.534;-5.674;2023-02-28T14:20:55;8.30;;;2.33;;
72437;SDS011;60444;43.534;-5.674;2023-02-28T14:23:34;6.70;;;1.88;;
72437;SDS011;60444;43.534;-5.674;2023-02-28T14:37:45;9.43;;;2.25;;
72437;SDS011;60444;43.534;-5.674;2023-02-28T14:40:32;6.55;;;2.20;;
72437;SDS011;60444;43.534;-5.674;2023-02-28T14:43:01;6.78;;;2.03;;
72437;SDS011;60444;43.534;-5.674;2023-02-28T14:45:29;9.05;;;2.00;;
72437;SDS011;60444;43.534;-5.674;2023-02-28T14:47:56;10.87;;;2.00;;
72437;SDS011;60444;43.534;-5.674;2023-02-28T14:50:28;5.72;;;1.88;;
72437;SDS011;60444;43.534;-5.674;2023-02-28T14:52:56;9.57;;;2.60;;
72437;SDS011;60444;43.534;-5.674;2023-02-28T14:55:28;7.60;;;1.80;;
72437;SDS011;60444;43.534;-5.674;2023-02-28T14:57:58;11.32;;;2.45;;
72437;SDS011;60444;43.534;-5.674;2023-02-28T15:00:26;7.23;;;2.27;;
72437;SDS011;60444;43.534;-5.674;2023-02-28T15:02:54;8.85;;;2.38;;
72437;SDS011;60444;43.534;-5.674;2023-02-28T15:11:06;9.05;;;2.20;;
72437;SDS011;60444;43.534;-5.674;2023-02-28T15:13:36;7.70;;;1.60;;
72437;SDS011;60444;43.534;-5.674;2023-02-28T15:16:03;7.50;;;1.98;;
72437;SDS011;60444;43.534;-5.674;2023-02-28T15:18:37;6.60;;;2.25;;
72437;SDS011;60444;43.534;-5.674;2023-02-28T15:21:12;7.63;;;2.58;;
72437;SDS011;60444;43.534;-5.674;2023-02-28T15:23:52;6.68;;;1.73;;
72437;SDS011;60444;43.534;-5.674;2023-02-28T15:26:27;9.20;;;2.43;;
72437;SDS011;60444;43.534;-5.674;2023-02-28T15:29:01;7.18;;;1.88;;
72437;SDS011;60444;43.534;-5.674;2023-02-28T15:31:49;8.60;;;2.47;;
72437;SDS011;60444;43.534;-5.674;2023-02-28T15:34:21;7.45;;;1.88;;
72437;SDS011;60444;43.534;-5.674;2023-02-28T15:36:50;8.73;;;1.90;;
72437;SDS011;60444;43.534;-5.674;2023-02-28T15:39:20;6.37;;;1.60;;
72437;SDS011;60444;43.534;-5.674;2023-02-28T15:41:47;5.43;;;1.80;;
72437;SDS011;60444;43.534;-5.674;2023-02-28T15:44:13;8.27;;;1.90;;
72437;SDS011;60444;43.534;-5.674;2023-02-28T15:49:23;5.47;;;1.50;;
72437;SDS011;60444;43.534;-5.674;2023-02-28T15:51:50;6.75;;;1.60;;
72437;SDS011;60444;43.534;-5.674;2023-02-28T15:54:22;4.80;;;1.60;;
72437;SDS011;60444;43.534;-5.674;2023-02-28T15:57:06;6.47;;;1.60;;
72437;SDS011;60444;43.534;-5.674;2023-02-28T15:59:33;5.93;;;1.35;;
72437;SDS011;60444;43.534;-5.674;2023-02-28T16:02:15;5.53;;;1.92;;
72437;SDS011;60444;43.534;-5.674;2023-02-28T16:07:26;6.70;;;1.85;;
72437;SDS011;60444;43.534;-5.674;2023-02-28T16:09:55;8.67;;;1.87;;
72437;SDS011;60444;43.534;-5.674;2023-02-28T16:12:22;8.02;;;2.15;;
72437;SDS011;60444;43.534;-5.674;2023-02-28T16:14:51;9.23;;;1.58;;
72437;SDS011;60444;43.534;-5.674;2023-02-28T16:17:25;6.83;;;1.93;;
72437;SDS011;60444;43.534;-5.674;2023-02-28T16:19:53;8.05;;;2.00;;
72437;SDS011;60444;43.534;-5.674;2023-02-28T16:22:20;10.05;;;2.38;;
72437;SDS011;60444;43.534;-5.674;2023-02-28T16:24:45;6.47;;;1.85;;
72437;SDS011;60444;43.534;-5.674;2023-02-28T16:27:16;6.83;;;1.97;;
72437;SDS011;60444;43.534;-5.674;2023-02-28T16:29:49;5.53;;;1.67;;
72437;SDS011;60444;43.534;-5.674;2023-02-28T16:32:15;8.00;;;1.90;;
72437;SDS011;60444;43.534;-5.674;2023-02-28T16:34:42;7.15;;;1.85;;
72437;SDS011;60444;43.534;-5.674;2023-02-28T16:37:12;6.95;;;1.80;;
72437;SDS011;60444;43.534;-5.674;2023-02-28T16:39:39;6.97;;;2.20;;
72437;SDS011;60444;43.534;-5.674;2023-02-28T16:42:05;5.90;;;1.83;;
72437;SDS011;60444;43.534;-5.674;2023-02-28T16:44:33;6.53;;;1.73;;
72437;SDS011;60444;43.534;-5.674;2023-02-28T16:47:00;6.35;;;2.20;;
72437;SDS011;60444;43.534;-5.674;2023-02-28T16:49:26;6.75;;;1.90;;
72437;SDS011;60444;43.534;-5.674;2023-02-28T16:51:52;5.33;;;2.03;;
72437;SDS011;60444;43.534;-5.674;2023-02-28T16:54:18;5.90;;;2.20;;
72437;SDS011;60444;43.534;-5.674;2023-02-28T16:56:44;4.93;;;1.57;;
72437;SDS011;60444;43.534;-5.674;2023-02-28T16:59:11;6.90;;;1.88;;
72437;SDS011;60444;43.534;-5.674;2023-02-28T17:01:37;7.27;;;1.93;;
72437;SDS011;60444;43.534;-5.674;2023-02-28T17:04:03;8.20;;;2.00;;
72437;SDS011;60444;43.534;-5.674;2023-02-28T17:06:29;6.93;;;1.67;;
72437;SDS011;60444;43.534;-5.674;2023-02-28T17:08:56;8.95;;;2.30;;
72437;SDS011;60444;43.534;-5.674;2023-02-28T17:11:23;6.17;;;1.90;;
72437;SDS011;60444;43.534;-5.674;2023-02-28T17:13:50;8.10;;;1.98;;
72437;SDS011;60444;43.534;-5.674;2023-02-28T17:16:27;5.30;;;2.15;;
72437;SDS011;60444;43.534;-5.674;2023-02-28T17:18:54;9.70;;;2.45;;
72437;SDS011;60444;43.534;-5.674;2023-02-28T17:21:21;9.98;;;2.58;;
72437;SDS011;60444;43.534;-5.674;2023-02-28T17:23:47;9.27;;;2.83;;
72437;SDS011;60444;43.534;-5.674;2023-02-28T17:26:13;8.80;;;2.13;;
72437;SDS011;60444;43.534;-5.674;2023-02-28T17:28:41;6.43;;;2.03;;